createdAt,value
2023-02-11T00:01:09.550Z,101456.38
2023-02-11T00:03:36.944Z,101461.34
2023-02-11T00:06:06.212Z,101460.91
2023-02-11T00:08:33.495Z,101452.69
2023-02-11T00:11:00.745Z,101435.56
2023-02-11T00:13:28.096Z,101438.38
2023-02-11T00:15:55.720Z,101428.88
2023-02-11T00:18:23.548Z,101432.06
2023-02-11T00:20:50.788Z,101420.19
2023-02-11T00:23:18.093Z,101407.75
2023-02-11T00:25:45.733Z,101395.53
2023-02-11T00:28:13.137Z,101383.19
2023-02-11T00:30:41.200Z,101376.09
2023-02-11T00:33:09.281Z,101373.22
2023-02-11T00:35:37.348Z,101362.00
2023-02-11T00:38:04.765Z,101350.75
2023-02-11T00:40:32.050Z,101348.13
2023-02-11T00:42:59.524Z,101344.59
2023-02-11T00:45:26.954Z,101327.53
2023-02-11T00:47:55.322Z,101327.97
2023-02-11T00:50:22.806Z,101310.25
2023-02-11T00:52:50.147Z,101301.13
2023-02-11T00:55:17.850Z,101298.13
2023-02-11T00:57:45.206Z,101294.22
2023-02-11T01:00:13.465Z,101280.34
2023-02-11T01:02:40.959Z,101268.09
2023-02-11T01:05:08.329Z,101254.09
2023-02-11T01:07:35.648Z,101245.16
2023-02-11T01:10:02.984Z,101231.97
2023-02-11T01:12:30.390Z,101234.03
2023-02-11T01:14:58.876Z,101229.72
2023-02-11T01:17:26.242Z,101220.53
2023-02-11T01:19:53.475Z,101221.38
2023-02-11T01:22:21.537Z,101217.66
2023-02-11T01:24:48.783Z,101202.91
2023-02-11T01:27:19.337Z,101200.50
2023-02-11T01:29:46.622Z,101193.56
2023-02-11T01:32:13.937Z,101186.41
2023-02-11T01:34:41.318Z,101159.25
2023-02-11T01:37:08.499Z,101155.25
2023-02-11T01:39:36.271Z,101138.44
2023-02-11T01:42:03.837Z,101131.16
2023-02-11T01:44:31.150Z,101140.66
2023-02-11T01:46:58.569Z,101123.16
2023-02-11T01:49:30.777Z,101134.44
2023-02-11T01:52:04.827Z,101112.88
2023-02-11T01:54:53.929Z,101107.00
2023-02-11T01:57:27.252Z,101103.81
2023-02-11T01:59:57.858Z,101088.50
2023-02-11T02:02:34.296Z,101074.47
2023-02-11T02:05:08.547Z,101068.66
2023-02-11T02:07:46.259Z,101067.22
2023-02-11T02:10:17.187Z,101051.97
2023-02-11T02:12:44.461Z,101045.06
2023-02-11T02:15:17.647Z,101046.72
2023-02-11T02:17:53.875Z,101043.41
2023-02-11T02:20:39.759Z,101030.13
2023-02-11T02:23:10.090Z,101028.22
2023-02-11T02:25:56.212Z,101019.13
2023-02-11T02:28:29.687Z,101013.69
2023-02-11T02:31:09.295Z,101015.66
2023-02-11T02:34:10.336Z,101004.56
2023-02-11T02:36:43.118Z,101008.13
2023-02-11T02:39:10.460Z,101002.00
2023-02-11T02:41:39.078Z,101010.50
2023-02-11T02:44:07.566Z,101018.94
2023-02-11T02:46:38.504Z,101006.50
2023-02-11T02:49:07.586Z,101007.91
2023-02-11T02:51:37.848Z,101005.03
2023-02-11T02:54:05.162Z,100998.25
2023-02-11T02:56:46.184Z,100992.56
2023-02-11T02:59:24.813Z,101018.19
2023-02-11T03:02:04.976Z,101004.47
2023-02-11T03:04:32.322Z,100995.59
2023-02-11T03:07:14.796Z,100984.25
2023-02-11T03:09:49.922Z,100990.31
2023-02-11T03:12:17.376Z,100981.53
2023-02-11T03:14:46.191Z,100989.94
2023-02-11T03:17:14.246Z,100979.88
2023-02-11T03:19:43.320Z,100973.25
2023-02-11T03:22:19.167Z,100981.09
2023-02-11T03:24:46.887Z,100963.09
2023-02-11T03:27:20.241Z,100956.72
2023-02-11T03:30:14.029Z,100965.81
2023-02-11T03:32:47.148Z,100941.72
2023-02-11T03:35:17.956Z,100942.94
2023-02-11T03:37:52.644Z,100930.34
2023-02-11T03:40:22.334Z,100915.81
2023-02-11T03:42:51.811Z,100913.78
2023-02-11T03:45:22.065Z,100908.22
2023-02-11T03:47:52.528Z,100911.22
2023-02-11T03:50:20.810Z,100903.34
2023-02-11T03:52:50.038Z,100900.81
2023-02-11T03:55:18.621Z,100890.53
2023-02-11T03:57:46.584Z,100888.84
2023-02-11T04:00:14.430Z,100868.25
2023-02-11T04:02:41.683Z,100868.38
2023-02-11T04:05:10.852Z,100829.06
2023-02-11T04:07:38.216Z,100865.59
2023-02-11T04:10:05.594Z,100858.81
2023-02-11T04:12:32.904Z,100856.09
2023-02-11T04:15:00.206Z,100862.19
2023-02-11T04:17:27.445Z,100861.38
2023-02-11T04:19:54.732Z,100865.94
2023-02-11T04:22:22.045Z,100858.06
2023-02-11T04:24:49.248Z,100847.75
2023-02-11T04:27:16.669Z,100840.81
2023-02-11T04:29:43.912Z,100832.16
2023-02-11T04:32:11.719Z,100825.00
2023-02-11T04:34:39.315Z,100823.88
2023-02-11T04:37:06.806Z,100818.19
2023-02-11T04:39:34.272Z,100815.13
2023-02-11T04:42:01.536Z,100813.28
2023-02-11T04:44:28.798Z,100823.63
2023-02-11T04:46:57.138Z,100823.88
2023-02-11T04:49:24.346Z,100818.47
2023-02-11T04:51:51.660Z,100801.91
2023-02-11T04:54:18.910Z,100791.16
2023-02-11T04:56:46.439Z,100773.59
2023-02-11T04:59:14.832Z,100775.53
2023-02-11T05:01:42.197Z,100762.13
2023-02-11T05:04:09.750Z,100750.13
2023-02-11T05:06:38.450Z,100756.00
2023-02-11T05:09:05.769Z,100748.78
2023-02-11T05:11:33.154Z,100745.88
2023-02-11T05:14:00.515Z,100743.78
2023-02-11T05:16:28.216Z,100734.78
2023-02-11T05:18:55.886Z,100731.22
2023-02-11T05:21:23.292Z,100732.09
2023-02-11T05:23:50.495Z,100710.44
2023-02-11T05:26:17.862Z,100723.28
2023-02-11T05:28:45.595Z,100721.22
2023-02-11T05:31:14.781Z,100718.28
2023-02-11T05:33:42.320Z,100717.50
2023-02-11T05:36:10.844Z,100707.19
2023-02-11T05:38:38.229Z,100715.41
2023-02-11T05:41:06.037Z,100703.03
2023-02-11T05:43:35.258Z,100690.16
2023-02-11T05:46:03.558Z,100689.63
2023-02-11T05:48:31.131Z,100696.38
2023-02-11T05:50:58.394Z,100685.69
2023-02-11T05:53:25.663Z,100692.00
2023-02-11T05:55:55.113Z,100671.78
2023-02-11T05:58:23.740Z,100689.72
2023-02-11T06:00:51.080Z,100690.44
2023-02-11T06:03:18.436Z,100694.31
2023-02-11T06:05:46.192Z,100687.69
2023-02-11T06:08:13.395Z,100680.63
2023-02-11T06:10:59.352Z,100688.31
2023-02-11T06:13:26.672Z,100678.91
2023-02-11T06:15:57.770Z,100671.50
2023-02-11T06:18:25.415Z,100672.13
2023-02-11T06:20:52.634Z,100667.28
2023-02-11T06:23:19.924Z,100675.88
2023-02-11T06:25:47.244Z,100674.28
2023-02-11T06:28:14.518Z,100665.19
2023-02-11T06:30:41.979Z,100668.63
2023-02-11T06:33:09.309Z,100671.78
2023-02-11T06:35:38.558Z,100670.34
2023-02-11T06:38:05.786Z,100664.53
2023-02-11T06:40:33.075Z,100648.56
2023-02-11T06:43:00.304Z,100653.44
2023-02-11T06:45:27.723Z,100666.38
2023-02-11T06:47:54.946Z,100654.50
2023-02-11T06:50:22.184Z,100653.44
2023-02-11T06:52:49.434Z,100644.56
2023-02-11T06:55:16.731Z,100644.38
2023-02-11T06:57:43.974Z,100658.06
2023-02-11T07:00:11.657Z,100639.03
2023-02-11T07:02:39.141Z,100652.56
2023-02-11T07:05:07.237Z,100642.56
2023-02-11T07:07:34.535Z,100632.94
2023-02-11T07:10:04.164Z,100641.38
2023-02-11T07:12:34.377Z,100635.34
2023-02-11T07:15:01.678Z,100625.44
2023-02-11T07:17:28.891Z,100623.03
2023-02-11T07:19:56.204Z,100614.94
2023-02-11T07:22:23.416Z,100606.50
2023-02-11T07:24:50.715Z,100615.84
2023-02-11T07:27:17.906Z,100614.47
2023-02-11T07:29:47.018Z,100606.31
2023-02-11T07:32:14.454Z,100617.78
2023-02-11T07:34:42.015Z,100611.38
2023-02-11T07:37:09.300Z,100604.91
2023-02-11T07:39:36.535Z,100610.50
2023-02-11T07:42:04.098Z,100610.03
2023-02-11T07:44:33.313Z,100607.09
2023-02-11T07:47:00.794Z,100598.94
2023-02-11T07:49:28.124Z,100591.59
2023-02-11T07:51:55.436Z,100588.38
2023-02-11T07:54:22.644Z,100593.53
2023-02-11T07:56:49.951Z,100595.59
2023-02-11T07:59:17.101Z,100590.47
2023-02-11T08:01:44.551Z,100597.00
2023-02-11T08:04:11.737Z,100596.81
2023-02-11T08:06:41.548Z,100589.88
2023-02-11T08:09:09.847Z,100582.47
2023-02-11T08:11:37.197Z,100594.31
2023-02-11T08:14:04.445Z,100584.84
2023-02-11T08:16:33.485Z,100590.44
2023-02-11T08:19:06.821Z,100583.44
2023-02-11T08:21:34.322Z,100583.47
2023-02-11T08:24:03.268Z,100578.44
2023-02-11T08:26:31.881Z,100579.09
2023-02-11T08:28:59.319Z,100587.50
2023-02-11T08:31:40.959Z,100583.75
2023-02-11T08:34:10.591Z,100585.38
2023-02-11T08:36:38.501Z,100585.53
2023-02-11T08:39:22.492Z,100584.53
2023-02-11T08:41:51.940Z,100595.44
2023-02-11T08:44:19.781Z,100596.69
2023-02-11T08:46:48.183Z,100586.16
2023-02-11T08:49:15.866Z,100600.97
2023-02-11T08:51:43.516Z,100602.06
2023-02-11T08:54:10.795Z,100602.59
2023-02-11T08:56:38.490Z,100607.41
2023-02-11T08:59:06.671Z,100605.59
2023-02-11T09:01:34.653Z,100606.44
2023-02-11T09:04:02.466Z,100610.38
2023-02-11T09:06:31.012Z,100617.66
2023-02-11T09:08:59.006Z,100621.94
2023-02-11T09:11:28.651Z,100620.72
2023-02-11T09:13:56.221Z,100629.53
2023-02-11T09:16:24.803Z,100629.91
2023-02-11T09:18:52.699Z,100615.88
2023-02-11T09:21:20.206Z,100640.66
2023-02-11T09:23:48.178Z,100634.94
2023-02-11T09:26:17.528Z,100643.94
2023-02-11T09:28:44.894Z,100632.38
2023-02-11T09:31:13.623Z,100632.44
2023-02-11T09:33:47.702Z,100641.81
2023-02-11T09:36:22.262Z,100640.56
2023-02-11T09:38:49.506Z,100643.66
2023-02-11T09:41:19.423Z,100656.22
2023-02-11T09:43:47.787Z,100657.50
2023-02-11T09:46:16.291Z,100665.50
2023-02-11T09:48:45.801Z,100672.56
2023-02-11T09:51:36.560Z,100671.69
2023-02-11T09:54:33.184Z,100659.25
2023-02-11T09:57:00.484Z,100682.03
2023-02-11T09:59:28.205Z,100677.75
2023-02-11T10:01:55.407Z,100680.31
2023-02-11T10:04:32.933Z,100692.41
2023-02-11T10:07:07.630Z,100697.00
2023-02-11T10:09:51.694Z,100693.50
2023-02-11T10:12:25.051Z,100706.84
2023-02-11T10:15:00.404Z,100682.28
2023-02-11T10:17:39.831Z,100709.31
2023-02-11T10:20:07.190Z,100713.69
2023-02-11T10:22:45.906Z,100723.44
2023-02-11T10:25:19.970Z,100727.03
2023-02-11T10:27:56.139Z,100736.69
2023-02-11T10:30:27.015Z,100751.81
2023-02-11T10:32:57.747Z,100747.31
2023-02-11T10:35:25.109Z,100753.22
2023-02-11T10:37:52.313Z,100757.53
2023-02-11T10:40:21.934Z,100724.50
2023-02-11T10:42:51.576Z,100748.47
2023-02-11T10:45:33.013Z,100745.91
2023-02-11T10:48:01.291Z,100754.38
2023-02-11T10:50:29.879Z,100751.47
2023-02-11T10:53:30.077Z,100752.63
2023-02-11T10:55:58.680Z,100768.34
2023-02-11T10:58:28.271Z,100767.31
2023-02-11T11:00:57.005Z,100778.53
2023-02-11T11:03:25.748Z,100787.50
2023-02-11T11:06:17.892Z,100786.69
2023-02-11T11:08:49.220Z,100806.03
2023-02-11T11:11:17.908Z,100804.94
2023-02-11T11:13:54.335Z,100813.97
2023-02-11T11:16:24.209Z,100831.84
2023-02-11T11:18:53.437Z,100840.69
2023-02-11T11:21:22.455Z,100841.75
2023-02-11T11:23:55.151Z,100859.56
2023-02-11T11:26:23.122Z,100870.63
2023-02-11T11:28:55.642Z,100880.66
2023-02-11T11:31:34.897Z,100887.78
2023-02-11T11:34:22.715Z,100895.56
2023-02-11T11:36:50.866Z,100887.09
2023-02-11T11:39:23.885Z,100880.88
2023-02-11T11:41:52.599Z,100885.75
2023-02-11T11:44:36.714Z,100891.53
2023-02-11T11:47:16.064Z,100907.28
2023-02-11T11:49:43.306Z,100913.66
2023-02-11T11:52:10.507Z,100919.31
2023-02-11T11:54:38.581Z,100929.16
2023-02-11T11:57:12.727Z,100936.44
2023-02-11T11:59:40.018Z,100941.59
2023-02-11T12:02:25.449Z,100958.16
2023-02-11T12:05:02.795Z,100982.75
2023-02-11T12:07:33.298Z,100979.06
2023-02-11T12:10:16.239Z,100979.81
2023-02-11T12:12:53.556Z,100975.44
2023-02-11T12:15:44.195Z,100980.06
2023-02-11T12:18:32.987Z,100978.09
2023-02-11T12:21:12.466Z,100988.16
2023-02-11T12:23:40.097Z,100943.63
2023-02-11T12:26:14.088Z,101008.72
2023-02-11T12:29:00.808Z,101015.16
2023-02-11T12:31:47.302Z,101023.66
2023-02-11T12:34:33.141Z,101018.56
2023-02-11T12:37:03.328Z,101030.41
2023-02-11T12:39:53.810Z,101033.44
2023-02-11T12:42:45.607Z,101045.34
2023-02-11T12:45:12.860Z,101044.47
2023-02-11T12:47:46.340Z,101035.66
2023-02-11T12:50:16.458Z,101053.34
2023-02-11T12:52:43.665Z,101062.78
2023-02-11T12:55:17.136Z,101078.16
2023-02-11T12:57:45.049Z,101094.78
2023-02-11T13:00:15.501Z,101095.81
2023-02-11T13:03:06.148Z,101108.41
2023-02-11T13:05:43.170Z,101120.44
2023-02-11T13:08:14.380Z,101124.88
2023-02-11T13:10:43.319Z,101134.25
2023-02-11T13:13:22.589Z,101152.47
2023-02-11T13:15:53.048Z,101160.13
2023-02-11T13:18:40.176Z,101168.03
2023-02-11T13:21:19.958Z,101173.78
2023-02-11T13:24:07.527Z,101181.91
2023-02-11T13:26:37.844Z,101197.16
2023-02-11T13:29:23.344Z,101198.88
2023-02-11T13:32:05.145Z,101209.31
2023-02-11T13:34:41.346Z,101225.06
2023-02-11T13:37:22.024Z,101237.97
2023-02-11T13:39:58.633Z,101242.69
2023-02-11T13:42:25.981Z,101250.47
2023-02-11T13:44:53.733Z,101251.03
2023-02-11T13:47:27.436Z,101263.22
2023-02-11T13:49:55.099Z,101263.47
2023-02-11T13:52:31.681Z,101273.34
2023-02-11T13:55:06.188Z,101285.47
2023-02-11T13:57:34.659Z,101296.72
2023-02-11T14:00:06.139Z,101308.84
2023-02-11T14:02:56.983Z,101325.50
2023-02-11T14:05:44.118Z,101330.88
2023-02-11T14:08:30.461Z,101336.72
2023-02-11T14:10:59.541Z,101352.03
2023-02-11T14:13:26.800Z,101367.03
2023-02-11T14:16:07.658Z,101377.50
2023-02-11T14:18:39.323Z,101387.13
2023-02-11T14:21:18.886Z,101400.34
2023-02-11T14:23:47.019Z,101412.91
2023-02-11T14:26:21.629Z,101424.34
2023-02-11T14:29:01.642Z,101437.78
2023-02-11T14:31:38.910Z,101452.47
2023-02-11T14:34:24.917Z,101460.78
2023-02-11T14:37:05.378Z,101477.25
2023-02-11T14:39:52.820Z,101488.47
2023-02-11T14:42:22.503Z,101494.47
2023-02-11T14:44:51.002Z,101510.81
2023-02-11T14:47:23.717Z,101503.03
2023-02-11T14:49:51.107Z,101528.25
2023-02-11T14:52:44.474Z,101531.69
2023-02-11T14:55:24.107Z,101538.22
2023-02-11T14:58:05.242Z,101547.28
2023-02-11T15:00:32.974Z,101562.22
2023-02-11T15:03:00.286Z,101573.09
2023-02-11T15:05:29.124Z,101581.81
2023-02-11T15:07:59.299Z,101596.34
2023-02-11T15:10:30.062Z,101602.66
2023-02-11T15:12:58.011Z,101611.22
2023-02-11T15:15:26.030Z,101617.16
2023-02-11T15:17:53.747Z,101641.66
2023-02-11T15:20:32.005Z,101644.34
2023-02-11T15:23:01.304Z,101653.63
2023-02-11T15:25:28.933Z,101653.41
2023-02-11T15:27:57.327Z,101668.94
2023-02-11T15:30:34.182Z,101669.59
2023-02-11T15:33:03.322Z,101670.13
2023-02-11T15:35:32.559Z,101673.75
2023-02-11T15:38:00.039Z,101676.84
2023-02-11T15:40:29.682Z,101692.38
2023-02-11T15:42:58.993Z,101687.22
2023-02-11T15:45:29.678Z,101697.63
2023-02-11T15:48:06.862Z,101708.63
2023-02-11T15:50:37.166Z,101730.25
2023-02-11T15:53:13.800Z,101736.00
2023-02-11T15:55:41.449Z,101734.63
2023-02-11T15:58:10.242Z,101749.66
2023-02-11T16:00:48.524Z,101739.06
2023-02-11T16:03:27.856Z,101744.78
2023-02-11T16:06:00.009Z,101766.50
2023-02-11T16:08:29.838Z,101769.59
2023-02-11T16:11:03.477Z,101753.13
2023-02-11T16:13:34.647Z,101787.59
2023-02-11T16:16:17.212Z,101801.84
2023-02-11T16:19:02.084Z,101807.81
2023-02-11T16:21:41.272Z,101824.50
2023-02-11T16:24:15.991Z,101819.59
2023-02-11T16:26:47.686Z,101836.91
2023-02-11T16:29:22.112Z,101847.34
2023-02-11T16:31:50.487Z,101854.63
2023-02-11T16:34:19.454Z,101861.88
2023-02-11T16:36:47.467Z,101879.44
2023-02-11T16:39:17.925Z,101875.31
2023-02-11T16:41:46.527Z,101885.00
2023-02-11T16:44:13.730Z,101899.66
2023-02-11T16:46:41.024Z,101913.41
2023-02-11T16:49:16.026Z,101918.75
2023-02-11T16:51:49.173Z,101918.81
2023-02-11T16:54:17.049Z,101931.53
2023-02-11T16:56:44.639Z,101946.16
2023-02-11T16:59:12.218Z,101943.75
2023-02-11T17:01:40.408Z,101953.22
2023-02-11T17:04:10.789Z,101960.75
2023-02-11T17:06:38.120Z,101976.22
2023-02-11T17:09:06.813Z,101978.91
2023-02-11T17:11:34.271Z,101988.56
2023-02-11T17:14:01.504Z,101999.63
2023-02-11T17:16:29.969Z,102004.75
2023-02-11T17:18:57.223Z,102016.09
2023-02-11T17:21:27.646Z,102025.81
2023-02-11T17:23:57.141Z,102034.34
2023-02-11T17:26:24.624Z,102044.00
2023-02-11T17:28:51.935Z,102060.53
2023-02-11T17:31:19.472Z,102065.94
2023-02-11T17:33:48.375Z,102066.31
2023-02-11T17:36:15.621Z,102085.28
2023-02-11T17:38:42.875Z,102094.75
2023-02-11T17:41:10.177Z,102102.09
2023-02-11T17:43:37.359Z,102097.44
2023-02-11T17:46:08.421Z,102105.97
2023-02-11T17:48:38.826Z,102112.16
2023-02-11T17:51:19.328Z,102121.41
2023-02-11T17:53:46.921Z,102140.59
2023-02-11T17:56:14.128Z,102138.47
2023-02-11T17:58:41.801Z,102137.38
2023-02-11T18:01:10.792Z,102147.81
2023-02-11T18:03:38.703Z,102165.53
2023-02-11T18:06:06.773Z,102167.78
2023-02-11T18:08:34.470Z,102174.78
2023-02-11T18:11:01.861Z,102177.59
2023-02-11T18:13:29.309Z,102185.03
2023-02-11T18:16:01.856Z,102197.31
2023-02-11T18:18:29.881Z,102202.59
2023-02-11T18:21:01.004Z,102213.03
2023-02-11T18:23:28.276Z,102216.50
2023-02-11T18:25:55.473Z,102218.34
2023-02-11T18:28:22.952Z,102227.69
2023-02-11T18:30:56.388Z,102212.91
2023-02-11T18:33:24.094Z,102251.53
2023-02-11T18:35:52.598Z,102256.94
2023-02-11T18:38:22.962Z,102258.00
2023-02-11T18:40:50.626Z,102266.59
2023-02-11T18:43:19.171Z,102276.31
2023-02-11T18:46:11.317Z,102288.00
2023-02-11T18:48:39.151Z,102294.13
2023-02-11T18:51:10.438Z,102300.28
2023-02-11T18:53:38.025Z,102307.16
2023-02-11T18:56:09.724Z,102325.19
2023-02-11T18:58:40.160Z,102323.59
2023-02-11T19:01:36.618Z,102331.84
2023-02-11T19:04:04.711Z,102336.47
2023-02-11T19:06:34.598Z,102340.22
2023-02-11T19:09:14.848Z,102339.78
2023-02-11T19:11:49.189Z,102343.69
2023-02-11T19:14:18.259Z,102357.03
2023-02-11T19:16:46.422Z,102369.81
2023-02-11T19:19:14.265Z,102376.91
2023-02-11T19:21:43.406Z,102385.16
2023-02-11T19:24:11.558Z,102386.03
2023-02-11T19:26:38.886Z,102385.88
2023-02-11T19:29:06.331Z,102386.81
2023-02-11T19:31:35.047Z,102403.91
2023-02-11T19:34:02.964Z,102415.38
2023-02-11T19:36:30.650Z,102434.22
2023-02-11T19:39:01.834Z,102435.28
2023-02-11T19:41:29.538Z,102445.44
2023-02-11T19:43:57.055Z,102456.69
2023-02-11T19:46:25.548Z,102459.31
2023-02-11T19:48:53.198Z,102455.34
2023-02-11T19:51:20.916Z,102444.88
2023-02-11T19:53:48.725Z,102457.44
2023-02-11T19:56:17.719Z,102467.94
2023-02-11T19:58:46.419Z,102437.81
2023-02-11T20:01:19.676Z,102475.47
2023-02-11T20:03:53.109Z,102491.19
2023-02-11T20:06:31.555Z,102502.81
2023-02-11T20:09:01.202Z,102500.69
2023-02-11T20:11:30.176Z,102495.50
2023-02-11T20:14:00.118Z,102504.22
2023-02-11T20:16:46.191Z,102507.28
2023-02-11T20:19:18.391Z,102519.69
2023-02-11T20:21:47.484Z,102522.97
2023-02-11T20:24:16.369Z,102530.81
2023-02-11T20:26:46.930Z,102533.81
2023-02-11T20:29:15.395Z,102544.72
2023-02-11T20:31:43.316Z,102549.19
2023-02-11T20:34:12.068Z,102549.19
2023-02-11T20:36:40.728Z,102559.44
2023-02-11T20:39:08.769Z,102558.88
2023-02-11T20:41:38.793Z,102556.94
2023-02-11T20:44:06.884Z,102566.44
2023-02-11T20:46:34.492Z,102563.88
2023-02-11T20:49:02.239Z,102580.00
2023-02-11T20:51:31.696Z,102586.22
2023-02-11T20:53:59.617Z,102593.94
2023-02-11T20:56:28.970Z,102601.34
2023-02-11T20:59:00.292Z,102598.34
2023-02-11T21:01:40.804Z,102604.84
2023-02-11T21:04:11.233Z,102603.75
2023-02-11T21:06:43.271Z,102608.31
2023-02-11T21:09:12.380Z,102615.50
2023-02-11T21:11:40.124Z,102607.22
2023-02-11T21:14:07.933Z,102617.44
2023-02-11T21:16:35.384Z,102621.38
2023-02-11T21:19:03.100Z,102632.03
2023-02-11T21:21:30.794Z,102628.63
2023-02-11T21:23:58.733Z,102642.44
2023-02-11T21:26:26.091Z,102648.72
2023-02-11T21:28:55.182Z,102643.06
2023-02-11T21:31:26.171Z,102645.22
2023-02-11T21:33:56.954Z,102642.88
2023-02-11T21:36:25.749Z,102641.38
2023-02-11T21:38:53.043Z,102651.81
2023-02-11T21:41:25.066Z,102648.72
2023-02-11T21:43:52.575Z,102637.63
2023-02-11T21:46:20.472Z,102650.66
2023-02-11T21:48:48.652Z,102670.06
2023-02-11T21:51:17.252Z,102689.69
2023-02-11T21:53:44.676Z,102688.88
2023-02-11T21:56:14.619Z,102688.47
2023-02-11T21:58:42.396Z,102693.31
2023-02-11T22:01:20.040Z,102692.28
2023-02-11T22:03:47.426Z,102684.19
2023-02-11T22:06:15.918Z,102688.19
2023-02-11T22:08:43.593Z,102700.72
2023-02-11T22:11:12.327Z,102701.28
2023-02-11T22:13:40.968Z,102706.59
2023-02-11T22:16:09.994Z,102710.63
2023-02-11T22:18:37.812Z,102709.25
2023-02-11T22:21:08.285Z,102724.53
2023-02-11T22:23:36.279Z,102718.94
2023-02-11T22:26:13.746Z,102733.69
2023-02-11T22:28:43.355Z,102731.34
2023-02-11T22:31:15.698Z,102746.44
2023-02-11T22:33:44.442Z,102699.19
2023-02-11T22:36:24.252Z,102749.88
2023-02-11T22:38:52.128Z,102757.00
2023-02-11T22:41:19.728Z,102761.03
2023-02-11T22:43:47.054Z,102763.81
2023-02-11T22:46:15.860Z,102764.88
2023-02-11T22:48:43.482Z,102772.34
2023-02-11T22:51:15.093Z,102777.50
2023-02-11T22:53:43.854Z,102780.78
2023-02-11T22:56:15.162Z,102781.47
2023-02-11T22:58:43.624Z,102776.75
2023-02-11T23:01:11.514Z,102778.56
2023-02-11T23:03:39.012Z,102781.84
2023-02-11T23:06:07.253Z,102786.09
2023-02-11T23:08:35.323Z,102782.06
2023-02-11T23:11:07.151Z,102790.38
2023-02-11T23:13:35.622Z,102789.75
2023-02-11T23:16:04.129Z,102788.28
2023-02-11T23:18:31.701Z,102786.09
2023-02-11T23:21:03.138Z,102785.47
2023-02-11T23:23:30.540Z,102782.06
2023-02-11T23:25:57.822Z,102786.44
2023-02-11T23:28:25.244Z,102790.47
2023-02-11T23:30:52.553Z,102800.63
2023-02-11T23:33:20.015Z,102797.69
2023-02-11T23:35:47.389Z,102812.38
2023-02-11T23:38:14.624Z,102808.69
2023-02-11T23:40:42.190Z,102803.31
2023-02-11T23:43:09.621Z,102816.31
2023-02-11T23:45:40.173Z,102815.25
2023-02-11T23:48:07.634Z,102813.25
2023-02-11T23:50:37.173Z,102806.16
2023-02-11T23:53:04.545Z,102804.28
2023-02-11T23:55:31.757Z,102800.31
2023-02-11T23:58:01.086Z,102791.34
